This is the latest recevied weather packets stored in our database for station/object EA5SW-14. If no packets are shown the sender has not sent any weather packets the latest 10 day(s).
| Time | Temp. | Humidity | Pressure | Rain* | Wind** | Luminosity | Snow |
|---|---|---|---|---|---|---|---|
| 1777933377 | 13.33° C | 72% | 1008.1 hPa | 0 mm | - | - | - |
| 1777931564 | 13.33° C | 72% | 1007.9 hPa | 0 mm | - | - | - |
| 1777929148 | 14.44° C | 65% | 1007.8 hPa | 0 mm | - | - | - |
| 1777928544 | 15° C | 65% | 1007.8 hPa | 0 mm | - | - | - |
| 1777927939 | 15° C | 64% | 1007.6 hPa | 0 mm | - | - | - |
| 1777926187 | 15° C | 65% | 1007.2 hPa | 0 mm | - | - | - |
| 1777922561 | 15.56° C | 62% | 1006.3 hPa | 0 mm | - | - | - |
| 1777915974 | 20.56° C | 48% | 1005.7 hPa | 0 mm | - | - | - |
| 1777914766 | 20.56° C | 47% | 1005.7 hPa | 0 mm | - | - | - |
| 1777914162 | 21.11° C | 48% | 1005.7 hPa | 0 mm | - | - | - |
| 1777912953 | 21.11° C | 47% | 1005.6 hPa | 0 mm | - | - | - |
| 1777912349 | 21.11° C | 46% | 1005.6 hPa | 0 mm | - | - | - |
| 1777910536 | 21.67° C | 46% | 1005.6 hPa | 0 mm | - | - | - |
| 1777909388 | 21.11° C | 46% | 1005.6 hPa | 0 mm | - | - | - |
| 1777908180 | 21.67° C | 47% | 1005.6 hPa | 0 mm | - | - | - |
| 1777906971 | 21.67° C | 46% | 1005.3 hPa | 0 mm | - | - | - |
| 1777905763 | 22.22° C | 48% | 1005.5 hPa | 0 mm | - | - | - |
| 1777904555 | 21.67° C | 52% | 1005.7 hPa | 0 mm | - | - | - |
| 1777903951 | 20.56° C | 53% | 1005.9 hPa | 0 mm | - | - | - |
| 1777903346 | 21.11° C | 52% | 1005.9 hPa | 0 mm | - | - | - |
| 1777897938 | 20.56° C | 61% | 1006.5 hPa | 0 mm | - | - | - |
| 1777897394 | 20° C | 63% | 1006.7 hPa | 0 mm | - | - | - |
| 1777893809 | 19.44° C | 68% | 1007.3 hPa | 0 mm | - | - | - |
| 1777888391 | 16.67° C | 77% | 1007.8 hPa | 0 mm | - | - | - |
| 1777881140 | 12.78° C | 97% | 1008 hPa | 0 mm | - | - | - |
* Rain latest hour (hover to see other rain measurements)
** Current wind speed in m/s (hover to see current wind gust speed)